Time;durP1;ratioP1;P1;durP2;ratioP2;P2;SDS_P1;SDS_P2;PMS_P1;PMS_P2;Temp;Humidity;BMP_temperature;BMP_pressure;BME280_temperature;BME280_humidity;BME280_pressure;Samples;Min_cycle;Max_cycle;Signal;HPM_P1;HPM_P2
2021/05/24 00:02:16;;;;;;;5.77;2.50;;;12.50;99.90;;;;;;5036209;28;20459;-59
2021/05/24 00:04:42;;;;;;;2.93;2.00;;;12.50;99.90;;;;;;5037144;28;20163;-59
2021/05/24 00:07:07;;;;;;;2.03;1.83;;;12.40;99.90;;;;;;5036055;28;20406;-59
2021/05/24 00:09:33;;;;;;;1.43;1.30;;;12.40;99.90;;;;;;5035973;28;20400;-59
2021/05/24 00:12:01;;;;;;;1.30;1.17;;;12.30;99.90;;;;;;5036458;28;20565;-58
2021/05/24 00:14:28;;;;;;;2.30;1.70;;;12.30;99.90;;;;;;5036429;28;20164;-59
2021/05/24 00:16:54;;;;;;;2.47;1.60;;;12.30;99.90;;;;;;5036599;28;20413;-58
2021/05/24 00:19:19;;;;;;;2.70;1.43;;;12.30;99.90;;;;;;5037038;28;20407;-58
2021/05/24 00:21:45;;;;;;;1.60;1.50;;;12.30;99.90;;;;;;5036274;28;20234;-58
2021/05/24 00:24:11;;;;;;;2.70;1.47;;;12.20;99.90;;;;;;5036069;28;20160;-58
2021/05/24 00:26:37;;;;;;;1.70;1.60;;;12.20;99.90;;;;;;5036314;28;20187;-60
2021/05/24 00:29:03;;;;;;;4.17;2.00;;;12.00;99.90;;;;;;5036044;28;20172;-60
2021/05/24 00:31:29;;;;;;;3.20;2.50;;;12.00;99.90;;;;;;5035913;28;20430;-60
2021/05/24 00:33:54;;;;;;;1.93;1.67;;;12.00;99.90;;;;;;5036305;28;20452;-60
2021/05/24 00:36:20;;;;;;;2.47;1.40;;;12.00;99.90;;;;;;5035942;28;20190;-60
2021/05/24 00:38:46;;;;;;;2.13;1.70;;;11.90;99.90;;;;;;5035447;28;20172;-59
2021/05/24 00:41:11;;;;;;;2.53;1.77;;;11.90;99.90;;;;;;5036054;28;20535;-60
2021/05/24 00:43:37;;;;;;;2.93;1.60;;;11.90;99.90;;;;;;5035914;28;20637;-60
2021/05/24 00:46:03;;;;;;;2.77;1.90;;;11.90;99.90;;;;;;5036003;28;20211;-60
2021/05/24 00:48:29;;;;;;;2.30;1.73;;;11.90;99.90;;;;;;5036084;28;20173;-60
2021/05/24 00:50:54;;;;;;;3.90;3.00;;;11.90;99.90;;;;;;5035586;28;20167;-59
2021/05/24 00:53:20;;;;;;;3.10;2.10;;;11.90;99.90;;;;;;5035425;28;20237;-60
2021/05/24 00:55:46;;;;;;;2.70;2.50;;;12.00;99.90;;;;;;5035943;28;20171;-59
2021/05/24 00:58:11;;;;;;;6.87;2.97;;;12.00;99.90;;;;;;5035909;28;20194;-60
2021/05/24 01:00:42;;;;;;;3.20;2.30;;;12.00;99.90;;;;;;5035507;28;20180;-60
2021/05/24 01:03:10;;;;;;;4.03;2.20;;;12.00;99.90;;;;;;5035201;28;20204;-59
2021/05/24 01:05:37;;;;;;;2.90;2.20;;;12.00;99.90;;;;;;5035413;28;20878;-60
2021/05/24 01:08:04;;;;;;;3.63;1.90;;;11.90;99.90;;;;;;5035786;28;20406;-59
2021/05/24 01:10:30;;;;;;;4.70;2.17;;;11.90;99.90;;;;;;5035547;28;20448;-59
2021/05/24 01:12:58;;;;;;;2.43;1.90;;;11.90;99.90;;;;;;5035706;28;20426;-60
2021/05/24 01:15:23;;;;;;;3.40;2.13;;;11.90;99.90;;;;;;5035268;28;20654;-59
2021/05/24 01:17:49;;;;;;;2.30;2.10;;;11.80;99.90;;;;;;5035178;28;20409;-60
2021/05/24 01:20:15;;;;;;;2.30;2.13;;;11.80;99.90;;;;;;5035126;28;20243;-60
2021/05/24 01:22:48;;;;;;;2.80;2.03;;;11.80;99.90;;;;;;5035164;28;20223;-60
2021/05/24 01:25:14;;;;;;;3.03;2.70;;;11.70;99.90;;;;;;5035377;28;20383;-54
2021/05/24 01:27:40;;;;;;;2.70;1.97;;;11.70;99.90;;;;;;5035380;28;20406;-58
2021/05/24 01:30:06;;;;;;;2.50;2.30;;;11.60;99.90;;;;;;5034741;28;20171;-60
2021/05/24 01:32:34;;;;;;;3.53;1.80;;;11.50;99.90;;;;;;5067121;22;20674;-54
2021/05/24 01:35:00;;;;;;;2.50;1.90;;;11.50;99.90;;;;;;5054553;28;20396;-55
2021/05/24 01:37:25;;;;;;;2.20;1.67;;;11.50;99.90;;;;;;5054217;28;20408;-52
2021/05/24 01:39:51;;;;;;;1.87;1.77;;;11.40;99.90;;;;;;5054484;28;20170;-54
2021/05/24 01:42:17;;;;;;;2.80;1.97;;;11.40;99.90;;;;;;5054292;28;20207;-52
2021/05/24 01:44:43;;;;;;;4.00;2.10;;;11.30;99.90;;;;;;5054666;28;20596;-53
2021/05/24 01:47:08;;;;;;;2.57;2.00;;;11.30;99.90;;;;;;5053880;28;20224;-55
2021/05/24 01:49:36;;;;;;;3.40;2.40;;;11.20;99.90;;;;;;5054286;28;20432;-54
2021/05/24 01:52:04;;;;;;;2.70;2.47;;;11.20;99.90;;;;;;5053898;28;20995;-54
2021/05/24 01:54:30;;;;;;;2.40;2.13;;;10.90;99.90;;;;;;5054001;28;20789;-52
2021/05/24 01:56:56;;;;;;;2.10;1.90;;;10.70;99.90;;;;;;5054405;28;20512;-55
2021/05/24 01:59:21;;;;;;;2.50;1.80;;;10.70;99.90;;;;;;5054381;28;20174;-55
2021/05/24 02:01:47;;;;;;;2.70;1.77;;;10.80;99.90;;;;;;5041974;28;20198;-54
2021/05/24 02:04:15;;;;;;;2.23;1.90;;;10.90;99.90;;;;;;5053998;28;20598;-55
2021/05/24 02:06:41;;;;;;;7.57;2.17;;;10.90;99.90;;;;;;5053782;28;20173;-52
2021/05/24 02:09:07;;;;;;;2.00;1.90;;;10.90;99.90;;;;;;5054134;28;20416;-52
2021/05/24 02:11:32;;;;;;;3.40;2.07;;;10.80;99.90;;;;;;5053085;28;20932;-50
2021/05/24 02:13:58;;;;;;;1.80;1.60;;;10.90;99.90;;;;;;5054180;28;20186;-50
2021/05/24 02:16:41;;;;;;;3.80;1.90;;;10.80;99.90;;;;;;5053975;28;20171;-52
2021/05/24 02:19:08;;;;;;;2.80;1.93;;;10.70;99.90;;;;;;5054267;28;20175;-50
2021/05/24 02:21:34;;;;;;;3.67;2.00;;;10.70;99.90;;;;;;5053724;28;20842;-53
2021/05/24 02:24:00;;;;;;;2.57;2.03;;;10.60;99.90;;;;;;5053552;28;20564;-54
2021/05/24 02:26:25;;;;;;;4.33;2.00;;;10.50;99.90;;;;;;5053658;28;20403;-53
2021/05/24 02:28:51;;;;;;;5.93;2.07;;;10.50;99.90;;;;;;5053858;28;20557;-54
2021/05/24 02:31:17;;;;;;;2.20;2.00;;;10.60;99.90;;;;;;5053513;28;20168;-54
2021/05/24 02:33:42;;;;;;;2.47;1.93;;;10.70;99.90;;;;;;5035454;28;20292;-55
2021/05/24 02:36:08;;;;;;;2.40;1.83;;;10.70;99.90;;;;;;5053215;28;20161;-49
2021/05/24 02:38:33;;;;;;;2.10;1.70;;;10.70;99.90;;;;;;5053510;28;20201;-53
2021/05/24 02:40:59;;;;;;;3.20;2.23;;;10.80;99.90;;;;;;5054247;28;20200;-53
2021/05/24 02:43:25;;;;;;;2.30;2.10;;;10.70;99.90;;;;;;5053189;28;20204;-53
2021/05/24 02:45:51;;;;;;;4.17;1.97;;;10.50;99.90;;;;;;5054104;28;20404;-54
2021/05/24 02:48:17;;;;;;;2.90;2.00;;;10.60;99.90;;;;;;5053251;28;20770;-55
2021/05/24 02:50:42;;;;;;;2.77;2.43;;;10.60;99.90;;;;;;5053407;28;20169;-55
2021/05/24 02:53:08;;;;;;;2.03;1.83;;;10.60;99.90;;;;;;5052989;28;20209;-55
2021/05/24 02:55:34;;;;;;;4.40;2.20;;;10.60;99.90;;;;;;5053423;28;20264;-52
2021/05/24 02:58:00;;;;;;;4.63;2.87;;;10.60;99.90;;;;;;5053097;28;20172;-53
2021/05/24 03:00:27;;;;;;;2.33;1.90;;;10.70;99.90;;;;;;5053302;28;20173;-55
2021/05/24 03:02:53;;;;;;;2.80;2.07;;;10.80;99.90;;;;;;5052784;28;20460;-53
2021/05/24 03:05:21;;;;;;;2.53;2.10;;;10.80;99.90;;;;;;5053208;28;20410;-54
2021/05/24 03:07:47;;;;;;;2.20;2.00;;;10.80;99.90;;;;;;5052750;28;20401;-55
2021/05/24 03:10:15;;;;;;;3.57;2.23;;;10.80;99.90;;;;;;5052719;28;20396;-53
2021/05/24 03:12:41;;;;;;;1.90;1.77;;;10.90;99.90;;;;;;5053138;28;20449;-53
2021/05/24 03:15:08;;;;;;;2.50;2.10;;;10.90;99.90;;;;;;5052830;28;20404;-55
2021/05/24 03:17:33;;;;;;;2.20;2.00;;;11.00;99.90;;;;;;5053454;28;20176;-52
2021/05/24 03:19:59;;;;;;;3.17;2.17;;;11.00;99.90;;;;;;5053123;28;20412;-54
2021/05/24 03:22:25;;;;;;;3.73;2.23;;;10.90;99.90;;;;;;5052810;28;20198;-51
2021/05/24 03:24:50;;;;;;;2.87;2.00;;;10.90;99.90;;;;;;5056737;28;20224;-53
2021/05/24 03:27:16;;;;;;;2.20;1.70;;;10.90;99.90;;;;;;5056949;28;20259;-51
2021/05/24 03:29:41;;;;;;;2.27;2.10;;;10.90;99.90;;;;;;5056893;28;20162;-52
2021/05/24 03:32:07;;;;;;;2.80;2.60;;;10.90;99.90;;;;;;5056828;28;20209;-52
2021/05/24 03:34:33;;;;;;;6.13;4.77;;;10.90;99.90;;;;;;5056815;28;20158;-53
2021/05/24 03:36:59;;;;;;;4.40;3.87;;;10.90;99.90;;;;;;5056579;28;20167;-49
2021/05/24 03:39:25;;;;;;;4.50;3.73;;;10.70;99.90;;;;;;5056529;28;20250;-53
2021/05/24 03:41:50;;;;;;;4.10;3.63;;;10.70;99.90;;;;;;5056535;28;20225;-52
2021/05/24 03:44:16;;;;;;;3.03;2.83;;;10.70;99.90;;;;;;5056635;28;20450;-53
2021/05/24 03:46:42;;;;;;;4.17;3.23;;;10.70;99.90;;;;;;5056378;28;20261;-55
2021/05/24 03:49:08;;;;;;;3.60;2.60;;;10.60;99.90;;;;;;5056529;28;20462;-54
2021/05/24 03:51:33;;;;;;;3.70;2.53;;;10.70;99.90;;;;;;5056220;28;20172;-54
2021/05/24 03:53:59;;;;;;;5.30;2.87;;;10.70;99.90;;;;;;5056199;28;20678;-53
2021/05/24 03:56:25;;;;;;;3.00;2.33;;;10.70;99.90;;;;;;5056413;28;20639;-55
2021/05/24 03:58:50;;;;;;;2.60;2.40;;;10.70;99.90;;;;;;5056878;28;20171;-54
2021/05/24 04:01:16;;;;;;;3.40;2.57;;;10.60;99.90;;;;;;5056467;28;20174;-54
2021/05/24 04:03:42;;;;;;;2.40;2.00;;;10.70;99.90;;;;;;5056149;28;20191;-53
2021/05/24 04:06:10;;;;;;;2.57;2.37;;;10.70;99.90;;;;;;5055961;28;20399;-55
2021/05/24 04:08:37;;;;;;;2.10;1.90;;;10.60;99.90;;;;;;5056117;28;20413;-55
2021/05/24 04:11:04;;;;;;;3.37;2.23;;;10.70;99.90;;;;;;5056413;28;20405;-55
2021/05/24 04:13:30;;;;;;;1.47;1.37;;;10.60;99.90;;;;;;5056260;28;20432;-52
2021/05/24 04:15:57;;;;;;;2.63;2.10;;;10.50;99.90;;;;;;5056235;28;20418;-54
2021/05/24 04:18:25;;;;;;;1.70;1.60;;;10.70;99.90;;;;;;5055884;28;20421;-52
2021/05/24 04:20:51;;;;;;;1.60;1.50;;;10.80;99.90;;;;;;5055964;28;20494;-55
2021/05/24 04:23:17;;;;;;;1.93;1.80;;;10.80;99.90;;;;;;5055578;28;20594;-54
2021/05/24 04:25:43;;;;;;;1.73;1.57;;;10.70;99.90;;;;;;5055883;28;20192;-55
2021/05/24 04:28:09;;;;;;;2.50;1.73;;;10.80;99.90;;;;;;5055906;28;20494;-56
2021/05/24 04:30:35;;;;;;;2.37;1.70;;;10.70;99.90;;;;;;5056083;28;20408;-53
2021/05/24 04:33:01;;;;;;;2.10;2.00;;;10.80;99.90;;;;;;5055548;28;20217;-53
2021/05/24 04:35:27;;;;;;;3.03;2.70;;;10.90;99.90;;;;;;5055020;28;20264;-50
2021/05/24 04:37:53;;;;;;;3.23;2.93;;;10.90;99.90;;;;;;5055465;28;20463;-53
2021/05/24 04:40:18;;;;;;;1.97;1.77;;;11.00;99.90;;;;;;5055468;28;20179;-55
2021/05/24 04:42:46;;;;;;;3.20;2.30;;;11.10;99.90;;;;;;5055610;28;20213;-55
2021/05/24 04:45:12;;;;;;;1.77;1.67;;;11.10;99.90;;;;;;5038170;28;20593;-54
2021/05/24 04:47:38;;;;;;;3.60;2.80;;;11.20;99.90;;;;;;5055460;28;20418;-54
2021/05/24 04:50:04;;;;;;;3.77;2.60;;;11.20;99.90;;;;;;5055585;28;20775;-54
2021/05/24 04:52:30;;;;;;;3.97;2.33;;;11.20;99.90;;;;;;5054164;28;20193;-54
2021/05/24 04:54:55;;;;;;;2.43;2.23;;;11.20;99.90;;;;;;5043871;28;20898;-56
2021/05/24 04:57:21;;;;;;;2.50;2.30;;;11.20;99.90;;;;;;5055519;28;20209;-54
2021/05/24 04:59:47;;;;;;;2.70;2.23;;;11.20;99.90;;;;;;5055350;28;20176;-56
2021/05/24 05:02:12;;;;;;;1.83;1.50;;;11.40;99.90;;;;;;5055040;28;20305;-54
2021/05/24 05:04:38;;;;;;;2.30;2.10;;;11.50;99.90;;;;;;5055039;28;20167;-55
2021/05/24 05:07:03;;;;;;;3.00;1.83;;;11.60;99.90;;;;;;5055497;28;20166;-54
2021/05/24 05:09:29;;;;;;;2.73;2.20;;;11.70;99.90;;;;;;5054983;28;20162;-55
2021/05/24 05:11:55;;;;;;;1.67;1.47;;;11.80;99.90;;;;;;5054897;28;20177;-56
2021/05/24 05:14:23;;;;;;;1.50;1.40;;;11.90;99.90;;;;;;5054887;28;20222;-55
2021/05/24 05:16:49;;;;;;;2.13;1.70;;;11.80;99.90;;;;;;5055086;28;20412;-50
2021/05/24 05:19:16;;;;;;;2.30;1.53;;;11.90;99.90;;;;;;5054939;28;20867;-55
2021/05/24 05:21:42;;;;;;;1.40;1.30;;;12.00;99.90;;;;;;5054346;28;20199;-54
2021/05/24 05:24:09;;;;;;;1.70;1.60;;;12.00;99.90;;;;;;5054220;28;20421;-54
2021/05/24 05:26:34;;;;;;;1.50;1.40;;;12.00;99.90;;;;;;5054758;28;20451;-52
2021/05/24 05:29:00;;;;;;;1.20;1.10;;;12.10;99.90;;;;;;5054725;28;20897;-53
2021/05/24 05:31:25;;;;;;;2.10;1.60;;;12.30;99.90;;;;;;5054645;28;20167;-55
2021/05/24 05:33:51;;;;;;;1.47;1.37;;;12.50;99.90;;;;;;5054497;28;20202;-55
2021/05/24 05:36:17;;;;;;;1.33;1.23;;;12.60;99.90;;;;;;5054371;28;20188;-55
2021/05/24 05:38:43;;;;;;;1.13;1.03;;;12.70;99.90;;;;;;5054543;28;20167;-52
2021/05/24 05:41:08;;;;;;;1.83;1.40;;;12.90;99.90;;;;;;5054681;28;20941;-55
2021/05/24 05:43:34;;;;;;;3.83;2.87;;;13.00;99.90;;;;;;5054275;28;20573;-55
2021/05/24 05:46:00;;;;;;;1.93;1.70;;;13.10;99.90;;;;;;5054159;28;20170;-54
2021/05/24 05:48:25;;;;;;;3.93;2.77;;;13.10;99.90;;;;;;5054561;28;20196;-54
2021/05/24 05:50:51;;;;;;;1.70;1.50;;;13.20;99.90;;;;;;5054549;28;20176;-55
2021/05/24 05:53:17;;;;;;;2.50;1.57;;;13.30;99.90;;;;;;5053843;28;20223;-55
2021/05/24 05:55:43;;;;;;;3.37;1.80;;;13.20;99.90;;;;;;5054042;28;20416;-54
2021/05/24 05:58:08;;;;;;;3.20;1.33;;;13.30;99.90;;;;;;5054450;28;20171;-55
2021/05/24 06:00:34;;;;;;;1.83;1.67;;;13.50;99.90;;;;;;5053970;28;20187;-55
2021/05/24 06:02:59;;;;;;;2.50;1.90;;;13.70;99.90;;;;;;5053934;28;20210;-54
2021/05/24 06:05:25;;;;;;;3.73;2.60;;;13.50;99.90;;;;;;5054055;28;20244;-56
2021/05/24 06:07:51;;;;;;;2.73;2.03;;;13.70;99.90;;;;;;5053849;28;20167;-54
2021/05/24 06:10:17;;;;;;;1.90;1.80;;;13.80;99.90;;;;;;5053660;28;20168;-53
2021/05/24 06:12:45;;;;;;;3.33;2.10;;;13.90;99.90;;;;;;5053627;28;20663;-55
2021/05/24 06:15:15;;;;;;;3.03;2.20;;;14.10;99.90;;;;;;5054233;28;20424;-55
2021/05/24 06:17:40;;;;;;;5.20;2.70;;;14.20;99.90;;;;;;5053725;28;20451;-51
2021/05/24 06:20:07;;;;;;;2.90;2.43;;;14.10;99.90;;;;;;5053787;28;20435;-54
2021/05/24 06:22:32;;;;;;;3.00;2.80;;;14.00;99.90;;;;;;5053358;28;20693;-54
2021/05/24 06:24:58;;;;;;;2.80;2.10;;;14.20;99.90;;;;;;5053540;28;20494;-55
2021/05/24 06:27:23;;;;;;;3.50;3.17;;;14.10;99.90;;;;;;5053892;28;20281;-54
2021/05/24 06:29:49;;;;;;;3.60;3.00;;;14.00;99.90;;;;;;5053827;28;20605;-55
2021/05/24 06:32:15;;;;;;;3.70;2.83;;;13.70;99.90;;;;;;5053505;28;20209;-55
2021/05/24 06:34:40;;;;;;;4.03;2.37;;;13.80;99.90;;;;;;5053839;28;20171;-53
2021/05/24 06:37:06;;;;;;;2.43;2.23;;;13.90;99.90;;;;;;5053498;28;20186;-54
2021/05/24 06:39:32;;;;;;;3.20;2.70;;;13.80;99.90;;;;;;5053273;28;20175;-53
2021/05/24 06:41:57;;;;;;;3.20;2.37;;;14.00;99.90;;;;;;5053302;28;20201;-54
2021/05/24 06:44:23;;;;;;;2.57;2.20;;;14.00;99.90;;;;;;5053340;28;20177;-54
2021/05/24 06:46:49;;;;;;;3.63;1.90;;;14.10;99.90;;;;;;5053307;28;20645;-55
2021/05/24 06:49:15;;;;;;;2.50;2.00;;;14.30;99.90;;;;;;5053201;28;20181;-54
2021/05/24 06:51:41;;;;;;;2.60;2.20;;;14.50;99.90;;;;;;5053168;28;20534;-55
2021/05/24 06:54:06;;;;;;;5.33;2.20;;;14.40;99.90;;;;;;5053097;28;20461;-55
2021/05/24 06:56:32;;;;;;;2.50;1.80;;;14.50;99.90;;;;;;5053239;28;20222;-56
2021/05/24 06:58:57;;;;;;;2.60;1.93;;;14.80;99.90;;;;;;5052573;28;20219;-56
2021/05/24 07:01:23;;;;;;;3.20;2.00;;;14.80;99.90;;;;;;5053361;28;20172;-56
2021/05/24 07:03:49;;;;;;;2.13;2.00;;;15.10;99.90;;;;;;5053031;28;20209;-55
2021/05/24 07:06:16;;;;;;;2.10;2.00;;;15.20;99.90;;;;;;5052765;28;20180;-56
2021/05/24 07:08:41;;;;;;;4.73;2.30;;;15.10;99.90;;;;;;5053058;28;20186;-54
2021/05/24 07:11:07;;;;;;;2.20;2.00;;;15.20;99.90;;;;;;5053429;28;20402;-54
2021/05/24 07:13:33;;;;;;;63.63;55.37;;;15.40;99.90;;;;;;5053087;28;20707;-56
2021/05/24 07:15:58;;;;;;;65.67;57.50;;;15.60;99.90;;;;;;5053058;28;20186;-54
2021/05/24 07:18:24;;;;;;;5.90;4.60;;;15.70;99.90;;;;;;5053161;28;20216;-55
2021/05/24 07:20:50;;;;;;;3.57;3.07;;;15.80;99.90;;;;;;5053502;28;20203;-55
2021/05/24 07:23:16;;;;;;;3.80;3.47;;;15.80;99.90;;;;;;5052805;28;20207;-56
2021/05/24 07:25:42;;;;;;;7.00;6.20;;;15.90;99.90;;;;;;5052789;28;20178;-55
2021/05/24 07:28:08;;;;;;;3.20;2.20;;;15.80;99.90;;;;;;5053225;28;20464;-56
2021/05/24 07:30:34;;;;;;;2.70;2.40;;;15.80;99.90;;;;;;5053106;28;20405;-56
2021/05/24 07:32:59;;;;;;;3.07;2.30;;;16.00;99.90;;;;;;5068693;23;20255;-59
2021/05/24 07:35:25;;;;;;;3.30;3.00;;;16.10;99.90;;;;;;5053170;28;20401;-59
2021/05/24 07:37:51;;;;;;;68.77;62.43;;;16.10;99.90;;;;;;5053171;28;20170;-58
2021/05/24 07:40:16;;;;;;;9.67;7.20;;;16.10;99.90;;;;;;5052919;28;20519;-59
2021/05/24 07:42:42;;;;;;;4.07;2.90;;;16.20;99.90;;;;;;5053099;28;20239;-59
2021/05/24 07:45:10;;;;;;;139.17;125.97;;;16.20;99.90;;;;;;5052739;28;20178;-59
2021/05/24 07:47:35;;;;;;;6.17;4.60;;;16.50;99.90;;;;;;5027538;28;20798;-58
2021/05/24 07:50:02;;;;;;;29.07;26.97;;;16.70;99.90;;;;;;5033297;28;20401;-58
2021/05/24 07:52:28;;;;;;;3.57;3.27;;;17.00;99.90;;;;;;5033221;28;20213;-59
2021/05/24 07:54:54;;;;;;;2.80;2.60;;;16.90;99.90;;;;;;5033405;28;20401;-59
2021/05/24 07:57:19;;;;;;;5.20;2.50;;;16.70;99.90;;;;;;5033393;28;20171;-59
2021/05/24 07:59:45;;;;;;;3.83;2.97;;;16.70;99.90;;;;;;5032991;28;20264;-59
2021/05/24 08:02:11;;;;;;;4.30;2.93;;;17.10;99.90;;;;;;5033239;28;20222;-60
2021/05/24 08:04:36;;;;;;;3.03;2.30;;;17.20;99.90;;;;;;5033192;28;20627;-60
2021/05/24 08:07:03;;;;;;;2.00;1.80;;;17.40;99.90;;;;;;5032567;28;20174;-60
2021/05/24 08:09:28;;;;;;;2.37;1.80;;;17.60;99.20;;;;;;5033435;28;20167;-60
2021/05/24 08:11:54;;;;;;;1.67;1.57;;;17.70;99.20;;;;;;5036602;28;20496;-59
2021/05/24 08:14:20;;;;;;;1.87;1.37;;;17.70;98.40;;;;;;5037926;28;20448;-59
2021/05/24 08:16:47;;;;;;;3.63;1.60;;;17.60;98.90;;;;;;5055436;28;20257;-59
2021/05/24 08:19:13;;;;;;;1.37;1.13;;;17.70;98.20;;;;;;5056572;28;20501;-60
2021/05/24 08:21:41;;;;;;;3.50;1.50;;;17.70;96.80;;;;;;5055961;28;20556;-60
2021/05/24 08:24:07;;;;;;;1.13;1.00;;;17.80;97.00;;;;;;5056129;28;20428;-60
2021/05/24 08:26:32;;;;;;;1.57;1.00;;;18.10;96.70;;;;;;5056505;28;20398;-60
2021/05/24 08:28:58;;;;;;;1.60;1.20;;;18.10;96.00;;;;;;5056127;28;20409;-59
2021/05/24 08:31:24;;;;;;;1.20;1.10;;;18.10;95.30;;;;;;5056517;28;20174;-54
2021/05/24 08:33:49;;;;;;;1.70;1.23;;;18.30;95.60;;;;;;5056013;28;20206;-56
2021/05/24 08:36:15;;;;;;;2.00;1.00;;;18.20;95.30;;;;;;5056322;28;20163;-58
2021/05/24 08:38:40;;;;;;;2.00;1.40;;;18.30;95.10;;;;;;5056200;28;20503;-58
2021/05/24 08:41:07;;;;;;;1.27;0.90;;;18.10;96.50;;;;;;5056025;28;20537;-57
2021/05/24 08:43:38;;;;;;;2.77;1.20;;;18.10;95.80;;;;;;5056445;28;20205;-56
2021/05/24 08:46:04;;;;;;;1.40;1.03;;;18.30;94.90;;;;;;5057521;28;20413;-58
2021/05/24 08:48:30;;;;;;;2.10;1.10;;;18.40;95.00;;;;;;5058096;28;20894;-57
2021/05/24 08:50:57;;;;;;;1.73;1.10;;;18.40;94.40;;;;;;5056284;28;20491;-57
2021/05/24 08:53:22;;;;;;;1.47;1.17;;;18.70;94.50;;;;;;5055472;28;20444;-56
2021/05/24 08:55:48;;;;;;;4.50;1.60;;;18.80;95.20;;;;;;5055501;28;20953;-58
2021/05/24 08:58:14;;;;;;;1.80;1.50;;;18.60;94.70;;;;;;5056113;28;20166;-57
2021/05/24 09:00:40;;;;;;;2.57;1.63;;;18.40;95.20;;;;;;5056082;28;20416;-59
2021/05/24 09:03:24;;;;;;;1.60;1.50;;;18.60;95.40;;;;;;5055357;28;20456;-57
2021/05/24 09:05:51;;;;;;;2.90;1.50;;;18.90;95.20;;;;;;5055721;28;20151;-57
2021/05/24 09:08:17;;;;;;;1.77;1.07;;;18.90;96.10;;;;;;5055470;28;20455;-59
2021/05/24 09:10:45;;;;;;;2.23;1.40;;;19.50;95.50;;;;;;5055588;28;20771;-58
2021/05/24 09:13:16;;;;;;;3.27;2.17;;;19.50;95.70;;;;;;5055738;28;20194;-59
2021/05/24 09:15:44;;;;;;;1.63;1.53;;;19.60;94.80;;;;;;5055437;28;20413;-56
2021/05/24 09:18:11;;;;;;;1.17;1.00;;;19.90;94.50;;;;;;5055332;28;20405;-58
2021/05/24 09:20:42;;;;;;;2.53;1.27;;;20.00;93.40;;;;;;5054921;28;20540;-58
2021/05/24 09:23:31;;;;;;;1.90;1.30;;;19.70;95.10;;;;;;5054805;28;20449;-58
2021/05/24 09:26:12;;;;;;;3.13;1.03;;;19.90;93.50;;;;;;5055429;28;20378;-58
2021/05/24 09:29:06;;;;;;;1.20;0.90;;;19.90;92.10;;;;;;5055167;28;20408;-58
2021/05/24 09:31:33;;;;;;;1.37;1.07;;;20.30;92.20;;;;;;5053296;28;20417;-58
2021/05/24 09:34:00;;;;;;;1.10;0.90;;;20.30;91.90;;;;;;5054832;28;20476;-60
2021/05/24 09:36:32;;;;;;;2.90;0.97;;;20.40;92.80;;;;;;5055034;28;20483;-61
2021/05/24 09:39:10;;;;;;;1.23;1.10;;;20.50;93.60;;;;;;5055310;28;20817;-60
2021/05/24 09:41:41;;;;;;;3.53;1.30;;;20.70;92.50;;;;;;5054587;28;20819;-59
2021/05/24 09:44:07;;;;;;;1.20;0.80;;;20.40;92.60;;;;;;5055420;28;20451;-60
2021/05/24 09:46:33;;;;;;;1.40;0.97;;;20.90;91.60;;;;;;5054979;28;20405;-59
2021/05/24 09:49:03;;;;;;;2.00;0.97;;;20.80;90.20;;;;;;5054877;28;20173;-60
2021/05/24 09:51:32;;;;;;;1.10;0.90;;;20.70;91.30;;;;;;5054952;28;20269;-60
2021/05/24 09:54:01;;;;;;;1.00;0.90;;;21.00;90.80;;;;;;5054039;28;20420;-59
2021/05/24 09:56:29;;;;;;;1.20;0.73;;;21.40;91.60;;;;;;5054699;28;20397;-60
2021/05/24 09:59:13;;;;;;;1.60;0.80;;;21.70;90.40;;;;;;5055114;28;20405;-60
2021/05/24 10:01:42;;;;;;;1.80;1.00;;;22.00;90.40;;;;;;5054344;28;20898;-60
2021/05/24 10:04:12;;;;;;;1.40;1.00;;;21.50;90.40;;;;;;5054533;28;20523;-58
2021/05/24 10:06:38;;;;;;;1.97;1.23;;;21.50;90.70;;;;;;5054743;28;20462;-60
2021/05/24 10:09:06;;;;;;;2.80;1.00;;;21.80;90.00;;;;;;5054113;28;20397;-57
2021/05/24 10:11:32;;;;;;;1.10;1.00;;;21.90;88.40;;;;;;5054000;28;20413;-60
2021/05/24 10:13:59;;;;;;;1.47;0.77;;;22.00;88.60;;;;;;5054220;28;20417;-59
2021/05/24 10:16:35;;;;;;;1.40;0.90;;;22.10;87.90;;;;;;5054568;28;20808;-57
2021/05/24 10:19:01;;;;;;;1.73;1.13;;;22.30;85.40;;;;;;5054685;28;20468;-60
2021/05/24 10:21:27;;;;;;;1.20;0.90;;;22.10;90.20;;;;;;5054911;28;20463;-60
2021/05/24 10:23:54;;;;;;;0.90;0.70;;;21.40;84.60;;;;;;5054173;28;20425;-60
2021/05/24 10:26:22;;;;;;;2.07;0.70;;;21.40;83.00;;;;;;5053933;28;20171;-59
2021/05/24 10:28:49;;;;;;;1.27;0.80;;;21.50;83.80;;;;;;5054153;28;20489;-60
2021/05/24 10:31:23;;;;;;;2.53;0.80;;;21.70;85.20;;;;;;5054085;28;20429;-58
2021/05/24 10:33:50;;;;;;;2.07;1.10;;;22.20;84.10;;;;;;5052921;28;20824;-59
2021/05/24 10:36:22;;;;;;;1.10;1.00;;;22.20;85.60;;;;;;5054067;28;20452;-59
2021/05/24 10:39:07;;;;;;;1.50;0.90;;;22.30;86.40;;;;;;5053912;28;20457;-59
2021/05/24 10:41:46;;;;;;;1.40;1.10;;;21.70;87.60;;;;;;5053471;28;20489;-59
2021/05/24 10:44:20;;;;;;;2.73;0.87;;;21.90;86.40;;;;;;5054256;28;20447;-59
2021/05/24 10:46:47;;;;;;;2.30;1.03;;;21.60;85.40;;;;;;5054119;28;20420;-60
2021/05/24 10:49:12;;;;;;;0.93;0.60;;;21.60;82.70;;;;;;5053926;28;20401;-60
2021/05/24 10:51:47;;;;;;;1.00;0.80;;;21.60;87.00;;;;;;5053938;28;20446;-59
2021/05/24 10:54:23;;;;;;;1.97;1.00;;;21.90;83.80;;;;;;5053950;28;20189;-58
2021/05/24 10:56:58;;;;;;;2.93;1.20;;;21.80;81.40;;;;;;5053523;28;20389;-60
2021/05/24 10:59:42;;;;;;;1.23;0.93;;;21.70;84.10;;;;;;5053667;28;20408;-59
2021/05/24 11:02:09;;;;;;;1.40;1.00;;;21.60;84.80;;;;;;5053427;28;20447;-60
2021/05/24 11:05:03;;;;;;;1.20;0.77;;;21.50;85.20;;;;;;5053489;28;20413;-60
2021/05/24 11:07:42;;;;;;;1.50;1.20;;;21.40;83.70;;;;;;5053118;28;20385;-60
2021/05/24 11:10:17;;;;;;;0.90;0.70;;;21.70;84.30;;;;;;5053134;28;20409;-59
2021/05/24 11:13:07;;;;;;;0.90;0.70;;;22.00;87.60;;;;;;5053161;28;20849;-59
2021/05/24 11:15:34;;;;;;;1.10;1.00;;;22.10;79.30;;;;;;5053330;28;20409;-60
2021/05/24 11:18:00;;;;;;;2.17;1.23;;;22.50;83.70;;;;;;5053457;28;20393;-59
2021/05/24 11:20:28;;;;;;;2.10;0.93;;;22.80;81.60;;;;;;5053412;28;20842;-59
2021/05/24 11:25:56;;;;;;;1.93;1.10;;;22.50;84.70;;;;;;5053626;28;20485;-60
2021/05/24 11:28:35;;;;;;;2.00;1.00;;;22.10;85.40;;;;;;5053662;28;20753;-59
2021/05/24 11:31:07;;;;;;;1.13;1.00;;;22.30;85.00;;;;;;5053429;28;20385;-60
2021/05/24 11:33:49;;;;;;;2.67;1.13;;;22.40;84.50;;;;;;5053052;28;20983;-60
2021/05/24 11:36:34;;;;;;;1.40;1.20;;;22.60;84.70;;;;;;5053499;28;20401;-59
2021/05/24 11:39:06;;;;;;;1.23;0.93;;;22.90;83.50;;;;;;5053006;28;20473;-59
2021/05/24 11:41:34;;;;;;;1.47;1.00;;;22.30;82.20;;;;;;5052920;28;20462;-59
2021/05/24 11:44:02;;;;;;;1.03;0.90;;;22.90;82.50;;;;;;5055372;28;20874;-60
2021/05/24 11:46:49;;;;;;;1.53;1.07;;;23.60;82.80;;;;;;5056885;28;20414;-59
2021/05/24 11:49:17;;;;;;;2.07;0.93;;;24.50;80.30;;;;;;5056884;28;20466;-58
2021/05/24 11:51:44;;;;;;;1.63;0.90;;;24.80;73.00;;;;;;5056866;28;20435;-56
2021/05/24 11:54:19;;;;;;;2.03;1.00;;;24.80;74.40;;;;;;5056597;28;20424;-58
2021/05/24 11:56:50;;;;;;;1.13;0.87;;;24.70;69.80;;;;;;5056790;28;20396;-58
2021/05/24 11:59:18;;;;;;;0.90;0.70;;;25.70;72.30;;;;;;5056734;28;20821;-58
2021/05/24 12:01:46;;;;;;;0.90;0.80;;;25.80;68.80;;;;;;5057074;28;20886;-59
2021/05/24 12:04:15;;;;;;;1.20;0.80;;;25.20;70.60;;;;;;5056484;28;20509;-59
2021/05/24 12:06:49;;;;;;;1.33;0.97;;;25.10;71.30;;;;;;5055731;28;20433;-60
2021/05/24 12:09:45;;;;;;;1.67;1.20;;;24.70;70.90;;;;;;5056364;28;20431;-60
2021/05/24 12:12:19;;;;;;;1.90;1.17;;;24.70;68.60;;;;;;5056590;28;20390;-61
2021/05/24 12:14:47;;;;;;;1.83;1.20;;;25.10;70.00;;;;;;5056808;28;20393;-60
2021/05/24 12:17:17;;;;;;;1.63;0.90;;;25.80;70.00;;;;;;5056662;28;20417;-60
2021/05/24 12:19:44;;;;;;;1.17;1.07;;;24.90;71.80;;;;;;5056573;28;20401;-60
2021/05/24 12:22:13;;;;;;;1.03;0.90;;;24.80;69.80;;;;;;5055917;28;20976;-60
2021/05/24 12:24:41;;;;;;;1.33;0.80;;;25.00;72.80;;;;;;5056649;28;20810;-59
2021/05/24 12:27:08;;;;;;;2.20;1.00;;;24.30;71.00;;;;;;5055981;28;20408;-59
2021/05/24 12:30:02;;;;;;;1.23;0.70;;;23.90;74.30;;;;;;5056658;28;20421;-60
2021/05/24 12:32:35;;;;;;;2.53;1.00;;;23.50;72.90;;;;;;5056214;28;20429;-60
2021/05/24 12:35:07;;;;;;;1.03;0.90;;;23.20;74.70;;;;;;5055902;28;20439;-60
2021/05/24 12:37:34;;;;;;;2.43;1.20;;;23.40;74.20;;;;;;5056033;28;20462;-60
2021/05/24 12:40:04;;;;;;;1.10;0.83;;;23.60;74.50;;;;;;5056185;28;20406;-60
2021/05/24 12:42:31;;;;;;;0.90;0.80;;;24.00;77.90;;;;;;5055856;28;20444;-60
2021/05/24 12:45:01;;;;;;;1.70;1.00;;;23.60;72.50;;;;;;5055779;28;20460;-59
2021/05/24 12:47:27;;;;;;;1.20;0.80;;;23.30;74.90;;;;;;5055659;28;20412;-60
2021/05/24 12:49:53;;;;;;;1.37;0.83;;;23.70;75.80;;;;;;5055829;28;20397;-60
2021/05/24 12:52:18;;;;;;;1.87;0.90;;;23.90;75.80;;;;;;5055617;28;20166;-60